sensor_id;sensor_type;location;lat;lon;timestamp;temperature;humidity
4637;DHT22;2331;48.806;9.140;2023-02-26T00:00:43;3.50;1.00
4637;DHT22;2331;48.806;9.140;2023-02-26T00:03:10;3.60;1.00
4637;DHT22;2331;48.806;9.140;2023-02-26T00:05:37;3.50;1.00
4637;DHT22;2331;48.806;9.140;2023-02-26T00:08:04;3.50;1.00
4637;DHT22;2331;48.806;9.140;2023-02-26T00:10:31;3.50;1.00
4637;DHT22;2331;48.806;9.140;2023-02-26T00:12:58;3.50;1.00
4637;DHT22;2331;48.806;9.140;2023-02-26T00:15:27;3.50;1.00
4637;DHT22;2331;48.806;9.140;2023-02-26T00:17:57;3.50;1.00
4637;DHT22;2331;48.806;9.140;2023-02-26T00:20:25;3.50;1.00
4637;DHT22;2331;48.806;9.140;2023-02-26T00:22:52;3.40;1.00
4637;DHT22;2331;48.806;9.140;2023-02-26T00:25:19;3.30;1.00
4637;DHT22;2331;48.806;9.140;2023-02-26T00:27:46;3.40;1.00
4637;DHT22;2331;48.806;9.140;2023-02-26T00:30:13;3.40;1.00
4637;DHT22;2331;48.806;9.140;2023-02-26T00:32:42;3.40;1.00
4637;DHT22;2331;48.806;9.140;2023-02-26T00:35:13;3.30;1.00
4637;DHT22;2331;48.806;9.140;2023-02-26T00:37:53;3.40;1.00
4637;DHT22;2331;48.806;9.140;2023-02-26T00:40:26;3.40;1.00
4637;DHT22;2331;48.806;9.140;2023-02-26T00:42:55;3.40;1.00
4637;DHT22;2331;48.806;9.140;2023-02-26T00:45:22;3.40;1.00
4637;DHT22;2331;48.806;9.140;2023-02-26T00:47:56;3.50;1.00
4637;DHT22;2331;48.806;9.140;2023-02-26T00:50:25;3.50;1.00
4637;DHT22;2331;48.806;9.140;2023-02-26T00:53:01;3.40;1.00
4637;DHT22;2331;48.806;9.140;2023-02-26T00:55:29;3.30;1.00
4637;DHT22;2331;48.806;9.140;2023-02-26T00:57:56;3.40;1.00
4637;DHT22;2331;48.806;9.140;2023-02-26T01:00:22;3.40;1.00
4637;DHT22;2331;48.806;9.140;2023-02-26T01:02:51;3.40;1.00
4637;DHT22;2331;48.806;9.140;2023-02-26T01:05:19;3.30;1.00
4637;DHT22;2331;48.806;9.140;2023-02-26T01:07:51;3.30;1.00
4637;DHT22;2331;48.806;9.140;2023-02-26T01:10:20;3.20;1.00
4637;DHT22;2331;48.806;9.140;2023-02-26T01:12:47;3.20;1.00
4637;DHT22;2331;48.806;9.140;2023-02-26T01:15:15;3.10;1.00
4637;DHT22;2331;48.806;9.140;2023-02-26T01:17:46;3.10;1.00
4637;DHT22;2331;48.806;9.140;2023-02-26T01:20:18;3.20;1.00
4637;DHT22;2331;48.806;9.140;2023-02-26T01:22:51;3.30;1.00
4637;DHT22;2331;48.806;9.140;2023-02-26T01:25:22;3.10;1.00
4637;DHT22;2331;48.806;9.140;2023-02-26T01:27:50;3.00;1.00
4637;DHT22;2331;48.806;9.140;2023-02-26T01:30:18;3.00;1.00
4637;DHT22;2331;48.806;9.140;2023-02-26T01:32:48;3.00;1.00
4637;DHT22;2331;48.806;9.140;2023-02-26T01:35:28;3.00;1.00
4637;DHT22;2331;48.806;9.140;2023-02-26T01:38:01;2.90;1.00
4637;DHT22;2331;48.806;9.140;2023-02-26T01:43:43;2.70;1.00
4637;DHT22;2331;48.806;9.140;2023-02-26T01:46:15;2.70;1.00
4637;DHT22;2331;48.806;9.140;2023-02-26T01:48:48;2.70;1.00
4637;DHT22;2331;48.806;9.140;2023-02-26T01:51:17;2.70;1.00
4637;DHT22;2331;48.806;9.140;2023-02-26T01:53:44;2.70;1.00
4637;DHT22;2331;48.806;9.140;2023-02-26T01:56:13;2.70;1.00
4637;DHT22;2331;48.806;9.140;2023-02-26T01:58:41;2.70;1.00
4637;DHT22;2331;48.806;9.140;2023-02-26T02:01:09;2.70;1.00
4637;DHT22;2331;48.806;9.140;2023-02-26T02:03:38;2.60;1.00
4637;DHT22;2331;48.806;9.140;2023-02-26T02:06:06;2.50;1.00
4637;DHT22;2331;48.806;9.140;2023-02-26T02:08:35;2.40;1.00
4637;DHT22;2331;48.806;9.140;2023-02-26T02:11:02;2.50;1.00
4637;DHT22;2331;48.806;9.140;2023-02-26T02:13:39;2.50;1.00
4637;DHT22;2331;48.806;9.140;2023-02-26T02:16:17;2.30;1.00
4637;DHT22;2331;48.806;9.140;2023-02-26T02:18:52;2.40;1.00
4637;DHT22;2331;48.806;9.140;2023-02-26T02:21:33;2.20;1.00
4637;DHT22;2331;48.806;9.140;2023-02-26T02:24:11;2.30;1.00
4637;DHT22;2331;48.806;9.140;2023-02-26T02:26:52;2.30;1.00
4637;DHT22;2331;48.806;9.140;2023-02-26T02:32:46;2.30;1.00
4637;DHT22;2331;48.806;9.140;2023-02-26T02:35:19;2.40;1.00
4637;DHT22;2331;48.806;9.140;2023-02-26T02:37:50;2.30;1.00
4637;DHT22;2331;48.806;9.140;2023-02-26T02:40:22;2.30;1.00
4637;DHT22;2331;48.806;9.140;2023-02-26T02:42:54;2.40;1.00
4637;DHT22;2331;48.806;9.140;2023-02-26T02:45:25;2.40;1.00
4637;DHT22;2331;48.806;9.140;2023-02-26T02:47:57;2.40;1.00
4637;DHT22;2331;48.806;9.140;2023-02-26T02:50:28;2.50;1.00
4637;DHT22;2331;48.806;9.140;2023-02-26T02:53:00;2.40;1.00
4637;DHT22;2331;48.806;9.140;2023-02-26T02:55:32;2.40;1.00
4637;DHT22;2331;48.806;9.140;2023-02-26T02:58:02;2.40;1.00
4637;DHT22;2331;48.806;9.140;2023-02-26T03:00:33;2.50;1.00
4637;DHT22;2331;48.806;9.140;2023-02-26T03:03:07;2.50;1.00
4637;DHT22;2331;48.806;9.140;2023-02-26T03:05:35;2.40;1.00
4637;DHT22;2331;48.806;9.140;2023-02-26T03:08:05;2.20;1.00
4637;DHT22;2331;48.806;9.140;2023-02-26T03:10:32;2.20;1.00
4637;DHT22;2331;48.806;9.140;2023-02-26T03:13:00;2.30;1.00
4637;DHT22;2331;48.806;9.140;2023-02-26T03:15:35;2.30;1.00
4637;DHT22;2331;48.806;9.140;2023-02-26T03:18:12;2.30;1.00
4637;DHT22;2331;48.806;9.140;2023-02-26T03:20:47;2.30;1.00
4637;DHT22;2331;48.806;9.140;2023-02-26T03:23:24;2.30;1.00
4637;DHT22;2331;48.806;9.140;2023-02-26T03:25:55;2.30;1.00
4637;DHT22;2331;48.806;9.140;2023-02-26T03:28:26;2.30;1.00
4637;DHT22;2331;48.806;9.140;2023-02-26T03:30:57;2.30;1.00
4637;DHT22;2331;48.806;9.140;2023-02-26T03:33:34;2.30;1.00
4637;DHT22;2331;48.806;9.140;2023-02-26T03:36:09;2.30;1.00
4637;DHT22;2331;48.806;9.140;2023-02-26T03:38:42;2.20;1.00
4637;DHT22;2331;48.806;9.140;2023-02-26T03:41:13;2.20;1.00
4637;DHT22;2331;48.806;9.140;2023-02-26T03:43:46;2.20;1.00
4637;DHT22;2331;48.806;9.140;2023-02-26T03:46:16;2.20;1.00
4637;DHT22;2331;48.806;9.140;2023-02-26T03:48:47;2.30;1.00
4637;DHT22;2331;48.806;9.140;2023-02-26T03:51:16;2.20;1.00
4637;DHT22;2331;48.806;9.140;2023-02-26T03:53:48;2.20;1.00
4637;DHT22;2331;48.806;9.140;2023-02-26T03:56:18;2.10;1.00
4637;DHT22;2331;48.806;9.140;2023-02-26T03:58:47;2.00;1.00
4637;DHT22;2331;48.806;9.140;2023-02-26T04:01:16;2.00;1.00
4637;DHT22;2331;48.806;9.140;2023-02-26T04:03:49;2.10;1.00
4637;DHT22;2331;48.806;9.140;2023-02-26T04:06:18;2.10;1.00
4637;DHT22;2331;48.806;9.140;2023-02-26T04:08:45;2.00;1.00
4637;DHT22;2331;48.806;9.140;2023-02-26T04:11:14;2.00;1.00
4637;DHT22;2331;48.806;9.140;2023-02-26T04:13:42;1.90;1.00
4637;DHT22;2331;48.806;9.140;2023-02-26T04:16:09;1.90;1.00
4637;DHT22;2331;48.806;9.140;2023-02-26T04:18:36;1.90;1.00
4637;DHT22;2331;48.806;9.140;2023-02-26T04:21:04;1.90;1.00
4637;DHT22;2331;48.806;9.140;2023-02-26T04:23:31;1.90;1.00
4637;DHT22;2331;48.806;9.140;2023-02-26T04:25:58;1.90;1.00
4637;DHT22;2331;48.806;9.140;2023-02-26T04:28:25;1.90;1.00
4637;DHT22;2331;48.806;9.140;2023-02-26T04:30:52;1.80;1.00
4637;DHT22;2331;48.806;9.140;2023-02-26T04:33:18;1.70;1.00
4637;DHT22;2331;48.806;9.140;2023-02-26T04:35:45;1.70;1.00
4637;DHT22;2331;48.806;9.140;2023-02-26T04:38:13;1.70;1.00
4637;DHT22;2331;48.806;9.140;2023-02-26T04:40:39;1.70;1.00
4637;DHT22;2331;48.806;9.140;2023-02-26T04:43:06;1.70;1.00
4637;DHT22;2331;48.806;9.140;2023-02-26T04:45:33;1.80;1.00
4637;DHT22;2331;48.806;9.140;2023-02-26T04:48:00;1.80;1.00
4637;DHT22;2331;48.806;9.140;2023-02-26T04:50:27;1.80;1.00
4637;DHT22;2331;48.806;9.140;2023-02-26T04:52:53;1.80;1.00
4637;DHT22;2331;48.806;9.140;2023-02-26T04:55:21;1.70;1.00
4637;DHT22;2331;48.806;9.140;2023-02-26T04:57:48;1.70;1.00
4637;DHT22;2331;48.806;9.140;2023-02-26T05:00:15;1.60;1.00
4637;DHT22;2331;48.806;9.140;2023-02-26T05:02:42;1.60;1.00
4637;DHT22;2331;48.806;9.140;2023-02-26T05:05:09;1.50;1.00
4637;DHT22;2331;48.806;9.140;2023-02-26T05:07:36;1.50;1.00
4637;DHT22;2331;48.806;9.140;2023-02-26T05:10:03;1.50;1.00
4637;DHT22;2331;48.806;9.140;2023-02-26T05:12:31;1.40;1.00
4637;DHT22;2331;48.806;9.140;2023-02-26T05:14:58;1.40;1.00
4637;DHT22;2331;48.806;9.140;2023-02-26T05:17:25;1.30;1.00
4637;DHT22;2331;48.806;9.140;2023-02-26T05:19:51;1.30;1.00
4637;DHT22;2331;48.806;9.140;2023-02-26T05:22:18;1.30;1.00
4637;DHT22;2331;48.806;9.140;2023-02-26T05:24:45;1.20;1.00
4637;DHT22;2331;48.806;9.140;2023-02-26T05:27:12;1.30;1.00
4637;DHT22;2331;48.806;9.140;2023-02-26T05:29:40;1.30;1.00
4637;DHT22;2331;48.806;9.140;2023-02-26T05:32:09;1.20;1.00
4637;DHT22;2331;48.806;9.140;2023-02-26T05:34:36;1.20;1.00
4637;DHT22;2331;48.806;9.140;2023-02-26T05:37:03;1.20;1.00
4637;DHT22;2331;48.806;9.140;2023-02-26T05:39:30;1.20;1.00
4637;DHT22;2331;48.806;9.140;2023-02-26T05:41:56;1.20;1.00
4637;DHT22;2331;48.806;9.140;2023-02-26T05:44:23;1.30;1.00
4637;DHT22;2331;48.806;9.140;2023-02-26T05:46:51;1.30;1.00
4637;DHT22;2331;48.806;9.140;2023-02-26T05:49:19;1.30;1.00
4637;DHT22;2331;48.806;9.140;2023-02-26T05:51:46;1.20;1.00
4637;DHT22;2331;48.806;9.140;2023-02-26T05:54:12;1.20;1.00
4637;DHT22;2331;48.806;9.140;2023-02-26T05:56:39;1.30;1.00
4637;DHT22;2331;48.806;9.140;2023-02-26T05:59:06;1.40;1.00
4637;DHT22;2331;48.806;9.140;2023-02-26T06:01:33;1.30;1.00
4637;DHT22;2331;48.806;9.140;2023-02-26T06:04:02;1.20;1.00
4637;DHT22;2331;48.806;9.140;2023-02-26T06:06:29;1.20;1.00
4637;DHT22;2331;48.806;9.140;2023-02-26T06:08:56;1.20;1.00
4637;DHT22;2331;48.806;9.140;2023-02-26T06:11:22;1.30;1.00
4637;DHT22;2331;48.806;9.140;2023-02-26T06:13:49;1.20;1.00
4637;DHT22;2331;48.806;9.140;2023-02-26T06:16:16;1.20;1.00
4637;DHT22;2331;48.806;9.140;2023-02-26T06:18:44;1.30;1.00
4637;DHT22;2331;48.806;9.140;2023-02-26T06:21:12;1.30;1.00
4637;DHT22;2331;48.806;9.140;2023-02-26T06:23:39;1.30;1.00
4637;DHT22;2331;48.806;9.140;2023-02-26T06:26:06;1.30;1.00
4637;DHT22;2331;48.806;9.140;2023-02-26T06:28:33;1.30;1.00
4637;DHT22;2331;48.806;9.140;2023-02-26T06:30:59;1.40;1.00
4637;DHT22;2331;48.806;9.140;2023-02-26T06:33:26;1.30;1.00
4637;DHT22;2331;48.806;9.140;2023-02-26T06:35:53;1.40;1.00
4637;DHT22;2331;48.806;9.140;2023-02-26T06:38:21;1.30;1.00
4637;DHT22;2331;48.806;9.140;2023-02-26T06:40:48;1.30;1.00
4637;DHT22;2331;48.806;9.140;2023-02-26T06:43:15;1.20;1.00
4637;DHT22;2331;48.806;9.140;2023-02-26T06:45:42;1.30;1.00
4637;DHT22;2331;48.806;9.140;2023-02-26T06:48:08;1.20;1.00
4637;DHT22;2331;48.806;9.140;2023-02-26T06:50:35;1.20;1.00
4637;DHT22;2331;48.806;9.140;2023-02-26T06:53:02;1.10;1.00
4637;DHT22;2331;48.806;9.140;2023-02-26T06:55:30;1.20;1.00
4637;DHT22;2331;48.806;9.140;2023-02-26T06:57:57;1.10;1.00
4637;DHT22;2331;48.806;9.140;2023-02-26T07:00:24;1.20;1.00
4637;DHT22;2331;48.806;9.140;2023-02-26T07:02:51;1.10;1.00
4637;DHT22;2331;48.806;9.140;2023-02-26T07:05:18;1.20;1.00
4637;DHT22;2331;48.806;9.140;2023-02-26T07:07:45;1.10;1.00
4637;DHT22;2331;48.806;9.140;2023-02-26T07:10:13;1.10;1.00
4637;DHT22;2331;48.806;9.140;2023-02-26T07:12:41;1.10;1.00
4637;DHT22;2331;48.806;9.140;2023-02-26T07:15:08;1.20;1.00
4637;DHT22;2331;48.806;9.140;2023-02-26T07:17:35;1.30;1.00
4637;DHT22;2331;48.806;9.140;2023-02-26T07:20:01;1.40;1.00
4637;DHT22;2331;48.806;9.140;2023-02-26T07:22:34;1.40;1.00
4637;DHT22;2331;48.806;9.140;2023-02-26T07:25:01;1.40;1.00
4637;DHT22;2331;48.806;9.140;2023-02-26T07:27:28;1.40;1.00
4637;DHT22;2331;48.806;9.140;2023-02-26T07:29:56;1.30;1.00
4637;DHT22;2331;48.806;9.140;2023-02-26T07:32:23;1.40;1.00
4637;DHT22;2331;48.806;9.140;2023-02-26T07:34:50;1.50;1.00
4637;DHT22;2331;48.806;9.140;2023-02-26T07:37:17;1.50;1.00
4637;DHT22;2331;48.806;9.140;2023-02-26T07:39:44;1.50;1.00
4637;DHT22;2331;48.806;9.140;2023-02-26T07:42:11;1.60;1.00
4637;DHT22;2331;48.806;9.140;2023-02-26T07:44:38;1.60;1.00
4637;DHT22;2331;48.806;9.140;2023-02-26T07:47:07;1.50;1.00
4637;DHT22;2331;48.806;9.140;2023-02-26T07:49:34;1.60;1.00
4637;DHT22;2331;48.806;9.140;2023-02-26T07:52:01;1.60;1.00
4637;DHT22;2331;48.806;9.140;2023-02-26T07:54:30;1.70;1.00
4637;DHT22;2331;48.806;9.140;2023-02-26T07:56:56;1.80;1.00
4637;DHT22;2331;48.806;9.140;2023-02-26T07:59:23;1.80;1.00
4637;DHT22;2331;48.806;9.140;2023-02-26T08:01:50;1.80;1.00
4637;DHT22;2331;48.806;9.140;2023-02-26T08:04:18;1.70;1.00
4637;DHT22;2331;48.806;9.140;2023-02-26T08:06:44;1.70;1.00
4637;DHT22;2331;48.806;9.140;2023-02-26T08:09:11;1.70;1.00
4637;DHT22;2331;48.806;9.140;2023-02-26T08:11:38;1.60;1.00
4637;DHT22;2331;48.806;9.140;2023-02-26T08:14:08;1.70;1.00
4637;DHT22;2331;48.806;9.140;2023-02-26T08:16:34;1.80;1.00
4637;DHT22;2331;48.806;9.140;2023-02-26T08:19:01;1.80;1.00
4637;DHT22;2331;48.806;9.140;2023-02-26T08:21:29;1.70;1.00
4637;DHT22;2331;48.806;9.140;2023-02-26T08:23:56;1.80;1.00
4637;DHT22;2331;48.806;9.140;2023-02-26T08:26:23;1.70;1.00
4637;DHT22;2331;48.806;9.140;2023-02-26T08:28:50;1.70;1.00
4637;DHT22;2331;48.806;9.140;2023-02-26T08:31:17;1.80;1.00
4637;DHT22;2331;48.806;9.140;2023-02-26T08:33:44;1.70;1.00
4637;DHT22;2331;48.806;9.140;2023-02-26T08:36:11;1.80;1.00
4637;DHT22;2331;48.806;9.140;2023-02-26T08:38:40;1.70;1.00
4637;DHT22;2331;48.806;9.140;2023-02-26T08:41:07;1.70;1.00
4637;DHT22;2331;48.806;9.140;2023-02-26T08:43:33;1.80;1.00
4637;DHT22;2331;48.806;9.140;2023-02-26T08:46:01;1.80;1.00
4637;DHT22;2331;48.806;9.140;2023-02-26T08:48:27;1.90;1.00
4637;DHT22;2331;48.806;9.140;2023-02-26T08:50:54;1.90;1.00
4637;DHT22;2331;48.806;9.140;2023-02-26T08:53:21;1.90;1.00
4637;DHT22;2331;48.806;9.140;2023-02-26T08:55:50;1.90;1.00
4637;DHT22;2331;48.806;9.140;2023-02-26T08:58:17;1.90;1.00
4637;DHT22;2331;48.806;9.140;2023-02-26T09:00:45;1.90;1.00
4637;DHT22;2331;48.806;9.140;2023-02-26T09:03:12;2.00;1.00
4637;DHT22;2331;48.806;9.140;2023-02-26T09:05:39;2.00;1.00
4637;DHT22;2331;48.806;9.140;2023-02-26T09:08:06;2.00;1.00
4637;DHT22;2331;48.806;9.140;2023-02-26T09:10:33;2.10;1.00
4637;DHT22;2331;48.806;9.140;2023-02-26T09:13:01;2.00;1.00
4637;DHT22;2331;48.806;9.140;2023-02-26T09:15:28;2.00;1.00
4637;DHT22;2331;48.806;9.140;2023-02-26T09:17:54;2.10;1.00
4637;DHT22;2331;48.806;9.140;2023-02-26T09:20:21;2.00;1.00
4637;DHT22;2331;48.806;9.140;2023-02-26T09:22:48;2.00;1.00
4637;DHT22;2331;48.806;9.140;2023-02-26T09:25:15;2.10;1.00
4637;DHT22;2331;48.806;9.140;2023-02-26T09:27:41;2.10;1.00
4637;DHT22;2331;48.806;9.140;2023-02-26T09:30:11;2.20;1.00
4637;DHT22;2331;48.806;9.140;2023-02-26T09:32:37;2.20;1.00
4637;DHT22;2331;48.806;9.140;2023-02-26T09:35:05;2.00;1.00
4637;DHT22;2331;48.806;9.140;2023-02-26T09:37:35;2.10;1.00
4637;DHT22;2331;48.806;9.140;2023-02-26T09:40:01;2.10;1.00
4637;DHT22;2331;48.806;9.140;2023-02-26T09:42:37;2.20;1.00
4637;DHT22;2331;48.806;9.140;2023-02-26T09:45:13;2.30;1.00
4637;DHT22;2331;48.806;9.140;2023-02-26T09:47:47;2.20;1.00
4637;DHT22;2331;48.806;9.140;2023-02-26T09:50:19;2.20;1.00
4637;DHT22;2331;48.806;9.140;2023-02-26T09:52:51;2.30;1.00
4637;DHT22;2331;48.806;9.140;2023-02-26T09:55:25;2.10;1.00
4637;DHT22;2331;48.806;9.140;2023-02-26T09:57:55;2.10;1.00
4637;DHT22;2331;48.806;9.140;2023-02-26T10:00:29;2.20;1.00
4637;DHT22;2331;48.806;9.140;2023-02-26T10:03:07;2.20;1.00
4637;DHT22;2331;48.806;9.140;2023-02-26T10:05:42;2.20;1.00
4637;DHT22;2331;48.806;9.140;2023-02-26T10:08:14;2.20;1.00
4637;DHT22;2331;48.806;9.140;2023-02-26T10:10:47;2.30;1.00
4637;DHT22;2331;48.806;9.140;2023-02-26T10:13:21;2.30;1.00
4637;DHT22;2331;48.806;9.140;2023-02-26T10:15:51;2.20;1.00
4637;DHT22;2331;48.806;9.140;2023-02-26T10:18:22;2.20;1.00
4637;DHT22;2331;48.806;9.140;2023-02-26T10:20:54;2.30;1.00
4637;DHT22;2331;48.806;9.140;2023-02-26T10:23:27;2.20;1.00
4637;DHT22;2331;48.806;9.140;2023-02-26T10:25:59;2.20;1.00
4637;DHT22;2331;48.806;9.140;2023-02-26T10:28:40;2.10;1.00
4637;DHT22;2331;48.806;9.140;2023-02-26T10:31:20;2.10;1.00
4637;DHT22;2331;48.806;9.140;2023-02-26T10:33:52;2.10;1.00
4637;DHT22;2331;48.806;9.140;2023-02-26T10:36:24;2.10;1.00
4637;DHT22;2331;48.806;9.140;2023-02-26T10:38:55;2.10;1.00
4637;DHT22;2331;48.806;9.140;2023-02-26T10:41:25;2.30;1.00
4637;DHT22;2331;48.806;9.140;2023-02-26T10:44:00;2.50;1.00
4637;DHT22;2331;48.806;9.140;2023-02-26T10:46:36;2.50;1.00
4637;DHT22;2331;48.806;9.140;2023-02-26T10:49:28;2.60;1.00
4637;DHT22;2331;48.806;9.140;2023-02-26T10:52:04;2.60;1.00
4637;DHT22;2331;48.806;9.140;2023-02-26T10:54:37;2.50;1.00
4637;DHT22;2331;48.806;9.140;2023-02-26T10:57:09;2.70;1.00
4637;DHT22;2331;48.806;9.140;2023-02-26T10:59:40;2.60;1.00
4637;DHT22;2331;48.806;9.140;2023-02-26T11:02:17;2.70;1.00
4637;DHT22;2331;48.806;9.140;2023-02-26T11:04:50;2.70;1.00
4637;DHT22;2331;48.806;9.140;2023-02-26T11:07:17;2.60;1.00
4637;DHT22;2331;48.806;9.140;2023-02-26T11:09:44;2.70;1.00
4637;DHT22;2331;48.806;9.140;2023-02-26T11:12:13;2.70;1.00
4637;DHT22;2331;48.806;9.140;2023-02-26T11:14:42;2.80;1.00
4637;DHT22;2331;48.806;9.140;2023-02-26T11:17:13;2.80;1.00
4637;DHT22;2331;48.806;9.140;2023-02-26T11:19:54;2.80;1.00
4637;DHT22;2331;48.806;9.140;2023-02-26T11:22:21;2.70;1.00
4637;DHT22;2331;48.806;9.140;2023-02-26T11:24:51;2.80;1.00
4637;DHT22;2331;48.806;9.140;2023-02-26T11:27:20;2.80;1.00
4637;DHT22;2331;48.806;9.140;2023-02-26T11:29:53;2.90;1.00
4637;DHT22;2331;48.806;9.140;2023-02-26T11:32:28;3.00;1.00
4637;DHT22;2331;48.806;9.140;2023-02-26T11:34:56;3.10;1.00
4637;DHT22;2331;48.806;9.140;2023-02-26T11:37:27;3.20;1.00
4637;DHT22;2331;48.806;9.140;2023-02-26T11:39:56;3.20;1.00
4637;DHT22;2331;48.806;9.140;2023-02-26T11:42:24;3.30;1.00
4637;DHT22;2331;48.806;9.140;2023-02-26T11:44:51;3.20;1.00
4637;DHT22;2331;48.806;9.140;2023-02-26T11:47:20;3.20;1.00
4637;DHT22;2331;48.806;9.140;2023-02-26T11:49:51;3.30;1.00
4637;DHT22;2331;48.806;9.140;2023-02-26T11:52:28;3.40;1.00
4637;DHT22;2331;48.806;9.140;2023-02-26T11:54:59;3.40;1.00
4637;DHT22;2331;48.806;9.140;2023-02-26T11:57:27;3.40;1.00
4637;DHT22;2331;48.806;9.140;2023-02-26T11:59:56;3.40;1.00
4637;DHT22;2331;48.806;9.140;2023-02-26T12:02:25;3.30;1.00
4637;DHT22;2331;48.806;9.140;2023-02-26T12:04:57;3.30;1.00
4637;DHT22;2331;48.806;9.140;2023-02-26T12:07:27;3.00;1.00
4637;DHT22;2331;48.806;9.140;2023-02-26T12:09:55;3.30;1.00
4637;DHT22;2331;48.806;9.140;2023-02-26T12:12:40;3.20;1.00
4637;DHT22;2331;48.806;9.140;2023-02-26T12:15:21;3.20;1.00
4637;DHT22;2331;48.806;9.140;2023-02-26T12:18:04;3.30;1.00
4637;DHT22;2331;48.806;9.140;2023-02-26T12:20:39;3.20;1.00
4637;DHT22;2331;48.806;9.140;2023-02-26T12:23:29;3.40;1.00
4637;DHT22;2331;48.806;9.140;2023-02-26T12:26:11;3.40;1.00
4637;DHT22;2331;48.806;9.140;2023-02-26T12:28:49;3.50;1.00
4637;DHT22;2331;48.806;9.140;2023-02-26T12:31:45;3.60;1.00
4637;DHT22;2331;48.806;9.140;2023-02-26T12:34:35;3.60;1.00
4637;DHT22;2331;48.806;9.140;2023-02-26T12:37:22;3.60;1.00
4637;DHT22;2331;48.806;9.140;2023-02-26T12:40:07;3.60;1.00
4637;DHT22;2331;48.806;9.140;2023-02-26T12:42:44;3.60;1.00
4637;DHT22;2331;48.806;9.140;2023-02-26T12:45:35;3.50;1.00
4637;DHT22;2331;48.806;9.140;2023-02-26T12:48:29;3.50;1.00
4637;DHT22;2331;48.806;9.140;2023-02-26T12:51:06;3.60;1.00
4637;DHT22;2331;48.806;9.140;2023-02-26T12:53:48;3.60;1.00
4637;DHT22;2331;48.806;9.140;2023-02-26T12:56:45;3.50;1.00
4637;DHT22;2331;48.806;9.140;2023-02-26T13:05:23;3.70;1.00
4637;DHT22;2331;48.806;9.140;2023-02-26T13:08:08;3.70;1.00
4637;DHT22;2331;48.806;9.140;2023-02-26T13:10:47;3.70;1.00
4637;DHT22;2331;48.806;9.140;2023-02-26T13:13:29;3.70;1.00
4637;DHT22;2331;48.806;9.140;2023-02-26T13:16:16;3.70;1.00
4637;DHT22;2331;48.806;9.140;2023-02-26T13:18:50;3.80;1.00
4637;DHT22;2331;48.806;9.140;2023-02-26T13:21:22;3.80;1.00
4637;DHT22;2331;48.806;9.140;2023-02-26T13:23:52;3.70;1.00
4637;DHT22;2331;48.806;9.140;2023-02-26T13:26:21;3.80;1.00
4637;DHT22;2331;48.806;9.140;2023-02-26T13:28:53;3.70;1.00
4637;DHT22;2331;48.806;9.140;2023-02-26T13:31:24;3.70;1.00
4637;DHT22;2331;48.806;9.140;2023-02-26T13:33:52;3.60;1.00
4637;DHT22;2331;48.806;9.140;2023-02-26T13:36:22;3.70;1.00
4637;DHT22;2331;48.806;9.140;2023-02-26T13:38:58;3.80;1.00
4637;DHT22;2331;48.806;9.140;2023-02-26T13:41:34;3.80;1.00
4637;DHT22;2331;48.806;9.140;2023-02-26T13:44:20;3.80;1.00
4637;DHT22;2331;48.806;9.140;2023-02-26T13:47:00;3.80;1.00
4637;DHT22;2331;48.806;9.140;2023-02-26T13:49:36;3.70;1.00
4637;DHT22;2331;48.806;9.140;2023-02-26T13:52:22;3.80;1.00
4637;DHT22;2331;48.806;9.140;2023-02-26T13:54:52;3.90;1.00
4637;DHT22;2331;48.806;9.140;2023-02-26T13:57:24;4.00;1.00
4637;DHT22;2331;48.806;9.140;2023-02-26T14:00:00;4.00;1.00
4637;DHT22;2331;48.806;9.140;2023-02-26T14:02:52;4.10;1.00
4637;DHT22;2331;48.806;9.140;2023-02-26T14:05:50;3.90;1.00
4637;DHT22;2331;48.806;9.140;2023-02-26T14:08:43;4.00;1.00
4637;DHT22;2331;48.806;9.140;2023-02-26T14:14:35;3.90;1.00
4637;DHT22;2331;48.806;9.140;2023-02-26T14:20:22;3.90;1.00
4637;DHT22;2331;48.806;9.140;2023-02-26T14:22:56;3.90;1.00
4637;DHT22;2331;48.806;9.140;2023-02-26T14:25:31;4.10;1.00
4637;DHT22;2331;48.806;9.140;2023-02-26T14:28:18;4.00;1.00
4637;DHT22;2331;48.806;9.140;2023-02-26T14:30:49;4.10;1.00
4637;DHT22;2331;48.806;9.140;2023-02-26T14:33:26;4.10;1.00
4637;DHT22;2331;48.806;9.140;2023-02-26T14:35:55;4.20;1.00
4637;DHT22;2331;48.806;9.140;2023-02-26T14:38:26;4.20;1.00
4637;DHT22;2331;48.806;9.140;2023-02-26T14:41:05;4.20;1.00
4637;DHT22;2331;48.806;9.140;2023-02-26T14:43:36;4.20;1.00
4637;DHT22;2331;48.806;9.140;2023-02-26T14:46:05;4.10;1.00
4637;DHT22;2331;48.806;9.140;2023-02-26T14:48:33;4.00;1.00
4637;DHT22;2331;48.806;9.140;2023-02-26T14:51:09;4.10;1.00
4637;DHT22;2331;48.806;9.140;2023-02-26T14:56:50;4.10;1.00
4637;DHT22;2331;48.806;9.140;2023-02-26T14:59:31;4.20;1.00
4637;DHT22;2331;48.806;9.140;2023-02-26T15:02:16;4.20;1.00
4637;DHT22;2331;48.806;9.140;2023-02-26T15:05:02;4.00;1.00
4637;DHT22;2331;48.806;9.140;2023-02-26T15:07:51;4.10;1.00
4637;DHT22;2331;48.806;9.140;2023-02-26T15:10:36;4.10;1.00
4637;DHT22;2331;48.806;9.140;2023-02-26T15:13:27;4.00;1.00
4637;DHT22;2331;48.806;9.140;2023-02-26T15:16:07;4.00;1.00
4637;DHT22;2331;48.806;9.140;2023-02-26T15:18:53;4.00;1.00
4637;DHT22;2331;48.806;9.140;2023-02-26T15:21:27;3.90;1.00
4637;DHT22;2331;48.806;9.140;2023-02-26T15:24:03;4.00;1.00
4637;DHT22;2331;48.806;9.140;2023-02-26T15:26:33;4.10;1.00
4637;DHT22;2331;48.806;9.140;2023-02-26T15:29:03;4.10;1.00
4637;DHT22;2331;48.806;9.140;2023-02-26T15:31:37;3.90;1.00
4637;DHT22;2331;48.806;9.140;2023-02-26T15:34:14;3.90;1.00
4637;DHT22;2331;48.806;9.140;2023-02-26T15:36:45;3.80;1.00
4637;DHT22;2331;48.806;9.140;2023-02-26T15:39:17;3.80;1.00
4637;DHT22;2331;48.806;9.140;2023-02-26T15:41:50;3.80;1.00
4637;DHT22;2331;48.806;9.140;2023-02-26T15:44:21;4.00;1.00
4637;DHT22;2331;48.806;9.140;2023-02-26T15:46:55;4.00;1.00
4637;DHT22;2331;48.806;9.140;2023-02-26T15:49:29;3.80;1.00
4637;DHT22;2331;48.806;9.140;2023-02-26T15:52:03;3.80;1.00
4637;DHT22;2331;48.806;9.140;2023-02-26T15:54:45;3.80;1.00
4637;DHT22;2331;48.806;9.140;2023-02-26T15:57:17;3.90;1.00
4637;DHT22;2331;48.806;9.140;2023-02-26T15:59:51;4.10;1.00
4637;DHT22;2331;48.806;9.140;2023-02-26T16:02:28;3.90;1.00
4637;DHT22;2331;48.806;9.140;2023-02-26T16:05:04;3.80;1.00
4637;DHT22;2331;48.806;9.140;2023-02-26T16:07:34;3.80;1.00
4637;DHT22;2331;48.806;9.140;2023-02-26T16:10:06;3.70;1.00
4637;DHT22;2331;48.806;9.140;2023-02-26T16:12:41;3.60;1.00
4637;DHT22;2331;48.806;9.140;2023-02-26T16:15:15;3.60;1.00
4637;DHT22;2331;48.806;9.140;2023-02-26T16:17:48;3.70;1.00
4637;DHT22;2331;48.806;9.140;2023-02-26T16:20:19;3.70;1.00
4637;DHT22;2331;48.806;9.140;2023-02-26T16:22:56;3.70;1.00
4637;DHT22;2331;48.806;9.140;2023-02-26T16:25:29;3.70;1.00
4637;DHT22;2331;48.806;9.140;2023-02-26T16:28:05;3.70;1.00
4637;DHT22;2331;48.806;9.140;2023-02-26T16:30:35;3.60;1.00
4637;DHT22;2331;48.806;9.140;2023-02-26T16:33:10;3.70;1.00
4637;DHT22;2331;48.806;9.140;2023-02-26T16:35:42;3.60;1.00
4637;DHT22;2331;48.806;9.140;2023-02-26T16:38:16;3.60;1.00
4637;DHT22;2331;48.806;9.140;2023-02-26T16:40:46;3.60;1.00
4637;DHT22;2331;48.806;9.140;2023-02-26T16:43:33;3.60;1.00
4637;DHT22;2331;48.806;9.140;2023-02-26T16:46:04;3.50;1.00
4637;DHT22;2331;48.806;9.140;2023-02-26T16:48:36;3.50;1.00
4637;DHT22;2331;48.806;9.140;2023-02-26T16:51:11;3.60;1.00
4637;DHT22;2331;48.806;9.140;2023-02-26T16:53:41;3.50;1.00
4637;DHT22;2331;48.806;9.140;2023-02-26T16:56:13;3.60;1.00
4637;DHT22;2331;48.806;9.140;2023-02-26T16:58:43;3.60;1.00
4637;DHT22;2331;48.806;9.140;2023-02-26T17:01:14;3.60;1.00
4637;DHT22;2331;48.806;9.140;2023-02-26T17:03:41;3.60;1.00
4637;DHT22;2331;48.806;9.140;2023-02-26T17:06:15;3.60;1.00
4637;DHT22;2331;48.806;9.140;2023-02-26T17:08:50;3.60;1.00
4637;DHT22;2331;48.806;9.140;2023-02-26T17:11:37;3.70;1.00
4637;DHT22;2331;48.806;9.140;2023-02-26T17:14:14;3.60;1.00
4637;DHT22;2331;48.806;9.140;2023-02-26T17:16:44;3.70;1.00
4637;DHT22;2331;48.806;9.140;2023-02-26T17:19:12;3.50;1.00
4637;DHT22;2331;48.806;9.140;2023-02-26T17:21:42;3.60;1.00
4637;DHT22;2331;48.806;9.140;2023-02-26T17:24:14;3.50;1.00